createdAt,value
2022-11-21T00:00:09.170Z,11.05
2022-11-21T00:02:35.500Z,14.52
2022-11-21T00:05:01.926Z,13.57
2022-11-21T00:07:28.406Z,11.35
2022-11-21T00:09:54.783Z,11.77
2022-11-21T00:12:21.153Z,12.15
2022-11-21T00:14:47.576Z,13.63
2022-11-21T00:17:13.927Z,11.98
2022-11-21T00:19:40.355Z,11.70
2022-11-21T00:22:06.793Z,13.55
2022-11-21T00:24:33.116Z,13.73
2022-11-21T00:27:01.052Z,15.00
2022-11-21T00:29:28.284Z,12.80
2022-11-21T00:31:55.027Z,12.27
2022-11-21T00:34:21.370Z,12.02
2022-11-21T00:36:47.710Z,11.88
2022-11-21T00:39:14.088Z,13.82
2022-11-21T00:41:40.673Z,15.32
2022-11-21T00:44:07.163Z,12.90
2022-11-21T00:46:33.523Z,13.90
2022-11-21T00:48:59.948Z,16.92
2022-11-21T00:51:26.325Z,19.75
2022-11-21T00:53:52.786Z,18.77
2022-11-21T00:56:19.125Z,19.92
2022-11-21T00:58:45.517Z,22.67
2022-11-21T01:01:13.878Z,20.58
2022-11-21T01:03:40.755Z,20.40
2022-11-21T01:06:11.312Z,22.30
2022-11-21T01:08:38.630Z,21.67
2022-11-21T01:11:06.042Z,21.55
2022-11-21T01:13:32.817Z,20.80
2022-11-21T01:16:06.380Z,19.75
2022-11-21T01:18:35.181Z,23.13
2022-11-21T01:21:02.951Z,18.10
2022-11-21T01:23:29.384Z,17.83
2022-11-21T01:25:55.785Z,18.52
2022-11-21T01:28:22.163Z,17.23
2022-11-21T01:30:48.516Z,22.88
2022-11-21T01:33:14.891Z,20.42
2022-11-21T01:35:42.465Z,15.48
2022-11-21T01:38:08.789Z,18.08
2022-11-21T01:40:41.219Z,15.80
2022-11-21T01:43:12.393Z,15.70
2022-11-21T01:45:56.837Z,16.05
2022-11-21T01:48:26.863Z,18.17
2022-11-21T01:50:54.205Z,18.77
2022-11-21T01:53:20.740Z,17.13
2022-11-21T01:55:47.156Z,16.83
2022-11-21T01:58:13.578Z,16.63
2022-11-21T02:00:40.685Z,20.77
2022-11-21T02:03:10.096Z,21.83
2022-11-21T02:05:38.012Z,21.05
2022-11-21T02:08:10.788Z,20.48
2022-11-21T02:10:38.431Z,22.45
2022-11-21T02:13:05.816Z,15.20
2022-11-21T02:15:32.357Z,19.40
2022-11-21T02:17:58.898Z,21.27
2022-11-21T02:20:26.499Z,21.50
2022-11-21T02:22:55.236Z,20.52
2022-11-21T02:25:26.181Z,20.00
2022-11-21T02:27:55.096Z,21.13
2022-11-21T02:30:21.544Z,15.05
2022-11-21T02:32:48.091Z,19.38
2022-11-21T02:35:15.373Z,16.20
2022-11-21T02:37:42.320Z,20.30
2022-11-21T02:40:11.913Z,22.90
2022-11-21T02:42:41.799Z,23.52
2022-11-21T02:45:08.999Z,13.43
2022-11-21T02:47:36.912Z,16.40
2022-11-21T02:50:10.363Z,20.45
2022-11-21T02:52:36.798Z,21.15
2022-11-21T02:55:03.254Z,18.42
2022-11-21T02:57:29.687Z,20.33
2022-11-21T02:59:56.056Z,17.42
2022-11-21T03:02:22.565Z,20.88
2022-11-21T03:04:48.892Z,24.40
2022-11-21T03:07:15.258Z,18.42
2022-11-21T03:09:41.607Z,20.58
2022-11-21T03:12:08.462Z,16.33
2022-11-21T03:14:35.487Z,17.70
2022-11-21T03:17:01.875Z,22.50
2022-11-21T03:19:28.436Z,19.15
2022-11-21T03:21:55.129Z,17.80
2022-11-21T03:24:21.571Z,20.63
2022-11-21T03:26:48.104Z,15.75
2022-11-21T03:29:14.656Z,16.08
2022-11-21T03:31:40.998Z,17.83
2022-11-21T03:34:07.558Z,17.05
2022-11-21T03:36:33.886Z,18.27
2022-11-21T03:39:00.210Z,16.25
2022-11-21T03:41:29.500Z,14.88
2022-11-21T03:43:56.867Z,14.77
2022-11-21T03:46:23.373Z,14.13
2022-11-21T03:48:49.832Z,15.88
2022-11-21T03:51:16.190Z,16.05
2022-11-21T03:53:42.597Z,13.88
2022-11-21T03:56:08.964Z,12.23
2022-11-21T03:58:35.362Z,12.98
2022-11-21T04:01:01.783Z,12.57
2022-11-21T04:03:28.193Z,16.00
2022-11-21T04:05:54.491Z,19.35
2022-11-21T04:08:20.828Z,13.23
2022-11-21T04:10:48.140Z,15.45
2022-11-21T04:13:14.890Z,15.68
2022-11-21T04:15:41.640Z,11.18
2022-11-21T04:18:08.329Z,8.85
2022-11-21T04:20:34.667Z,12.65
2022-11-21T04:23:01.256Z,12.80
2022-11-21T04:25:27.710Z,11.90
2022-11-21T04:27:57.522Z,12.68
2022-11-21T04:30:23.960Z,11.07
2022-11-21T04:32:50.845Z,16.02
2022-11-21T04:35:17.359Z,13.45
2022-11-21T04:37:43.872Z,14.90
2022-11-21T04:40:10.719Z,10.13
2022-11-21T04:42:37.383Z,9.38
2022-11-21T04:45:03.965Z,16.38
2022-11-21T04:47:30.382Z,10.40
2022-11-21T04:49:56.696Z,11.75
2022-11-21T04:52:23.026Z,13.88
2022-11-21T04:54:49.347Z,11.75
2022-11-21T04:57:15.831Z,13.18
2022-11-21T04:59:42.142Z,11.65
2022-11-21T05:02:08.746Z,11.38
2022-11-21T05:04:35.071Z,13.82
2022-11-21T05:07:01.462Z,11.38
2022-11-21T05:09:27.904Z,10.35
2022-11-21T05:12:12.721Z,9.88
2022-11-21T05:14:39.029Z,10.82
2022-11-21T05:17:05.420Z,12.10
2022-11-21T05:19:31.769Z,14.48
2022-11-21T05:21:58.143Z,16.83
2022-11-21T05:24:24.910Z,10.27
2022-11-21T05:26:51.288Z,13.93
2022-11-21T05:29:17.648Z,11.02
2022-11-21T05:31:44.051Z,10.30
2022-11-21T05:34:10.429Z,9.52
2022-11-21T05:36:36.837Z,17.50
2022-11-21T05:39:03.629Z,11.02
2022-11-21T05:41:29.930Z,13.55
2022-11-21T05:43:56.392Z,10.43
2022-11-21T05:46:23.695Z,10.15
2022-11-21T05:48:50.733Z,14.30
2022-11-21T05:51:17.554Z,14.05
2022-11-21T05:53:44.210Z,18.35
2022-11-21T05:56:11.785Z,16.27
2022-11-21T05:58:38.322Z,13.95
2022-11-21T06:01:05.421Z,11.30
2022-11-21T06:03:33.611Z,13.65
2022-11-21T06:06:00.991Z,10.95
2022-11-21T06:08:28.224Z,11.40
2022-11-21T06:10:54.579Z,18.70
2022-11-21T06:13:22.313Z,9.40
2022-11-21T06:15:52.728Z,9.50
2022-11-21T06:18:19.444Z,14.18
2022-11-21T06:20:46.128Z,11.60
2022-11-21T06:23:12.692Z,10.70
2022-11-21T06:25:39.142Z,11.95
2022-11-21T06:28:05.518Z,10.70
2022-11-21T06:30:31.879Z,10.30
2022-11-21T06:32:58.305Z,14.75
2022-11-21T06:35:24.755Z,14.18
2022-11-21T06:37:53.679Z,9.43
2022-11-21T06:40:20.331Z,7.47
2022-11-21T06:42:46.756Z,8.40
2022-11-21T06:45:13.147Z,7.97
2022-11-21T06:47:39.507Z,9.27
2022-11-21T06:50:06.160Z,8.27
2022-11-21T06:52:33.560Z,6.78
2022-11-21T06:54:59.946Z,7.32
2022-11-21T06:57:26.295Z,7.45
2022-11-21T06:59:52.630Z,8.38
2022-11-21T07:02:19.034Z,7.53
2022-11-21T07:04:45.489Z,7.70
2022-11-21T07:07:11.912Z,6.55
2022-11-21T07:09:38.418Z,6.53
2022-11-21T07:12:23.556Z,5.60
2022-11-21T07:14:50.137Z,8.63
2022-11-21T07:17:16.677Z,5.45
2022-11-21T07:19:43.137Z,6.88
2022-11-21T07:22:09.536Z,8.15
2022-11-21T07:24:35.930Z,7.90
2022-11-21T07:27:02.431Z,6.88
2022-11-21T07:29:29.289Z,7.38
2022-11-21T07:31:55.941Z,9.85
2022-11-21T07:34:22.347Z,7.88
2022-11-21T07:36:48.715Z,7.18
2022-11-21T07:39:15.045Z,5.68
2022-11-21T07:41:41.402Z,9.15
2022-11-21T07:44:07.757Z,8.13
2022-11-21T07:46:34.174Z,10.63
2022-11-21T07:49:03.347Z,7.50
2022-11-21T07:51:29.962Z,6.90
2022-11-21T07:53:56.338Z,10.35
2022-11-21T07:56:26.380Z,6.85
2022-11-21T07:58:53.124Z,7.55
2022-11-21T08:01:19.790Z,6.88
2022-11-21T08:03:46.277Z,8.15
2022-11-21T08:06:12.767Z,5.82
2022-11-21T08:08:39.107Z,9.25
2022-11-21T08:11:05.935Z,9.57
2022-11-21T08:13:32.518Z,7.78
2022-11-21T08:15:58.921Z,7.70
2022-11-21T08:18:25.437Z,7.13
2022-11-21T08:20:53.059Z,6.15
2022-11-21T08:23:19.379Z,5.28
2022-11-21T08:25:45.767Z,8.32
2022-11-21T08:28:12.178Z,8.90
2022-11-21T08:30:39.551Z,4.43
2022-11-21T08:33:06.704Z,10.32
2022-11-21T08:35:35.412Z,7.65
2022-11-21T08:38:02.062Z,6.68
2022-11-21T08:40:29.310Z,8.43
2022-11-21T08:42:56.359Z,9.00
2022-11-21T08:45:22.703Z,6.15
2022-11-21T08:47:49.184Z,5.28
2022-11-21T08:50:15.573Z,6.57
2022-11-21T08:52:41.967Z,6.45
2022-11-21T08:55:08.792Z,5.22
2022-11-21T08:57:38.592Z,9.00
2022-11-21T09:00:05.354Z,7.13
2022-11-21T09:02:31.674Z,6.97
2022-11-21T09:04:58.463Z,6.15
2022-11-21T09:07:24.821Z,7.90
2022-11-21T09:09:51.375Z,6.78
2022-11-21T09:12:17.798Z,8.10
2022-11-21T09:15:02.740Z,8.88
2022-11-21T09:17:48.005Z,9.52
2022-11-21T09:20:14.571Z,7.63
2022-11-21T09:22:41.186Z,6.45
2022-11-21T09:25:07.764Z,8.30
2022-11-21T09:27:34.094Z,7.30
2022-11-21T09:30:00.428Z,5.95
2022-11-21T09:32:26.804Z,6.18
2022-11-21T09:34:53.227Z,7.63
2022-11-21T09:37:19.653Z,6.07
2022-11-21T09:39:46.023Z,5.53
2022-11-21T09:42:38.044Z,8.40
2022-11-21T09:45:07.284Z,6.40
2022-11-21T09:47:44.520Z,7.35
2022-11-21T09:50:13.957Z,7.22
2022-11-21T09:52:44.968Z,8.30
2022-11-21T09:55:24.481Z,11.57
2022-11-21T09:57:51.252Z,11.55
2022-11-21T10:00:22.718Z,7.43
2022-11-21T10:02:49.781Z,5.32
2022-11-21T10:05:16.436Z,7.03
2022-11-21T10:07:44.151Z,8.10
2022-11-21T10:10:31.451Z,7.72
2022-11-21T10:13:06.149Z,11.63
2022-11-21T10:15:56.633Z,11.98
2022-11-21T10:18:35.403Z,7.30
2022-11-21T10:21:07.684Z,6.97
2022-11-21T10:23:42.880Z,5.57
2022-11-21T10:26:27.787Z,3.83
2022-11-21T10:28:59.235Z,8.45
2022-11-21T10:31:26.152Z,5.10
2022-11-21T10:33:53.173Z,5.88
2022-11-21T10:36:25.531Z,5.90
2022-11-21T10:38:52.497Z,9.85
2022-11-21T10:41:21.621Z,4.25
2022-11-21T10:44:12.638Z,9.20
2022-11-21T10:46:38.977Z,8.02
2022-11-21T10:49:08.159Z,7.80
2022-11-21T10:52:01.009Z,10.27
2022-11-21T10:54:33.260Z,7.32
2022-11-21T10:57:01.734Z,7.07
2022-11-21T10:59:31.231Z,6.78
2022-11-21T11:01:59.231Z,9.60
2022-11-21T11:04:28.204Z,5.85
2022-11-21T11:06:56.155Z,4.50
2022-11-21T11:09:32.882Z,6.40
2022-11-21T11:12:18.330Z,9.52
2022-11-21T11:14:50.140Z,7.73
2022-11-21T11:17:16.780Z,5.50
2022-11-21T11:19:59.427Z,10.65
2022-11-21T11:22:29.877Z,7.78
2022-11-21T11:25:00.482Z,9.63
2022-11-21T11:27:27.770Z,5.55
2022-11-21T11:29:54.177Z,8.35
2022-11-21T11:32:21.943Z,8.02
2022-11-21T11:34:58.096Z,8.05
2022-11-21T11:42:35.511Z,7.40
2022-11-21T11:45:20.718Z,8.73
2022-11-21T11:47:55.087Z,12.82
2022-11-21T11:50:40.369Z,11.60
2022-11-21T11:53:16.052Z,8.95
2022-11-21T11:55:57.424Z,11.98
2022-11-21T11:58:42.292Z,7.00
2022-11-21T12:01:14.937Z,8.07
2022-11-21T12:04:01.053Z,8.57
2022-11-21T12:07:10.648Z,9.63
2022-11-21T12:09:28.283Z,7.97
2022-11-21T12:12:11.007Z,9.25
2022-11-21T12:15:02.358Z,7.80
2022-11-21T12:17:44.321Z,3.92
2022-11-21T12:20:33.087Z,6.65
2022-11-21T12:22:59.422Z,4.93
2022-11-21T12:25:30.129Z,5.95
2022-11-21T12:27:57.188Z,8.60
2022-11-21T12:30:23.529Z,6.20
2022-11-21T12:33:07.844Z,12.27
2022-11-21T12:35:53.715Z,6.70
2022-11-21T12:38:44.584Z,11.80
2022-11-21T12:41:33.117Z,10.68
2022-11-21T12:44:07.312Z,14.43
2022-11-21T12:47:03.151Z,8.43
2022-11-21T12:49:55.833Z,5.23
2022-11-21T12:52:42.340Z,7.07
2022-11-21T12:55:32.155Z,9.70
2022-11-21T12:58:04.493Z,7.03
2022-11-21T13:00:37.103Z,7.78
2022-11-21T13:03:15.359Z,8.32
2022-11-21T13:05:43.047Z,6.43
2022-11-21T13:08:16.013Z,6.03
2022-11-21T13:10:48.950Z,7.22
2022-11-21T13:13:15.350Z,9.98
2022-11-21T13:15:52.184Z,8.55
2022-11-21T13:18:25.345Z,7.35
2022-11-21T13:20:52.263Z,7.68
2022-11-21T13:23:37.384Z,6.60
2022-11-21T13:26:22.122Z,6.05
2022-11-21T13:28:49.662Z,5.70
2022-11-21T13:31:42.552Z,5.50
2022-11-21T13:34:27.918Z,5.60
2022-11-21T13:36:54.457Z,10.75
2022-11-21T13:39:25.914Z,7.75
2022-11-21T13:42:21.280Z,9.13
2022-11-21T13:44:48.231Z,8.70
2022-11-21T13:47:26.620Z,6.97
2022-11-21T13:49:52.943Z,7.93
2022-11-21T13:52:19.652Z,6.38
2022-11-21T13:54:47.214Z,6.03
2022-11-21T13:57:33.947Z,4.20
2022-11-21T14:00:19.684Z,8.18
2022-11-21T14:07:39.521Z,7.95
2022-11-21T14:10:18.183Z,6.25
2022-11-21T14:12:47.720Z,6.50
2022-11-21T14:15:14.028Z,11.57
2022-11-21T14:18:01.185Z,13.43
2022-11-21T14:20:29.387Z,8.25
2022-11-21T14:22:57.550Z,10.80
2022-11-21T14:25:33.889Z,6.28
2022-11-21T14:28:01.584Z,7.93
2022-11-21T14:30:27.991Z,7.68
2022-11-21T14:32:54.776Z,6.70
2022-11-21T14:35:24.478Z,11.10
2022-11-21T14:37:51.241Z,5.35
2022-11-21T14:40:21.938Z,6.13
2022-11-21T14:42:48.297Z,5.22
2022-11-21T14:45:19.727Z,13.73
2022-11-21T14:47:52.926Z,9.20
2022-11-21T14:50:37.677Z,6.72
2022-11-21T14:53:04.243Z,9.05
2022-11-21T14:55:34.089Z,7.13
2022-11-21T14:58:02.168Z,7.53
2022-11-21T15:00:57.896Z,7.68
2022-11-21T15:03:23.018Z,5.68
2022-11-21T15:06:08.227Z,5.53
2022-11-21T15:09:46.024Z,8.85
2022-11-21T15:11:29.855Z,11.80
2022-11-21T15:14:14.869Z,8.10
2022-11-21T15:16:42.214Z,12.23
2022-11-21T15:19:09.742Z,9.68
2022-11-21T15:21:36.261Z,9.43
2022-11-21T15:24:40.123Z,6.65
2022-11-21T15:27:25.216Z,9.13
2022-11-21T15:30:05.026Z,8.57
2022-11-21T15:32:31.392Z,6.95
2022-11-21T15:34:57.832Z,7.53
2022-11-21T15:37:25.317Z,5.72
2022-11-21T15:39:52.171Z,5.80
2022-11-21T15:42:27.568Z,9.73
2022-11-21T15:45:15.310Z,10.50
2022-11-21T15:47:47.067Z,6.80
2022-11-21T15:50:13.718Z,9.73
2022-11-21T15:52:50.119Z,5.97
2022-11-21T15:55:22.908Z,12.20
2022-11-21T15:57:49.484Z,7.90
2022-11-21T16:00:16.851Z,9.70
2022-11-21T16:02:43.325Z,10.68
2022-11-21T16:05:14.165Z,11.18
2022-11-21T16:07:41.210Z,12.13
2022-11-21T16:10:15.355Z,13.52
2022-11-21T16:12:47.064Z,7.68
2022-11-21T16:15:13.649Z,7.47
2022-11-21T16:17:41.685Z,8.57
2022-11-21T16:20:08.333Z,11.65
2022-11-21T16:22:34.650Z,11.02
2022-11-21T16:25:00.980Z,8.25
2022-11-21T16:27:27.768Z,11.88
2022-11-21T16:29:54.182Z,11.93
2022-11-21T16:32:20.699Z,6.47
2022-11-21T16:34:47.221Z,7.75
2022-11-21T16:37:14.411Z,6.72
2022-11-21T16:39:41.832Z,8.48
2022-11-21T16:42:10.031Z,11.07
2022-11-21T16:44:36.479Z,12.15
2022-11-21T16:47:08.012Z,11.25
2022-11-21T16:49:35.278Z,9.60
2022-11-21T16:52:01.675Z,11.32
2022-11-21T16:54:28.110Z,10.18
2022-11-21T16:56:54.455Z,8.25
2022-11-21T16:59:20.796Z,12.15
2022-11-21T17:01:47.444Z,7.70
2022-11-21T17:04:17.193Z,9.80
2022-11-21T17:06:44.406Z,9.63
2022-11-21T17:09:10.756Z,7.45
2022-11-21T17:11:38.557Z,8.45
2022-11-21T17:14:06.344Z,8.40
2022-11-21T17:16:34.541Z,13.40
2022-11-21T17:19:01.702Z,8.10
2022-11-21T17:21:28.486Z,7.00
2022-11-21T17:23:55.239Z,7.43
2022-11-21T17:26:22.885Z,8.85
2022-11-21T17:28:52.534Z,11.15
2022-11-21T17:31:19.226Z,7.63
2022-11-21T17:33:50.226Z,12.88
2022-11-21T17:36:16.858Z,7.80
2022-11-21T17:38:43.878Z,8.07
2022-11-21T17:41:11.206Z,6.93
2022-11-21T17:43:37.873Z,8.25
2022-11-21T17:46:09.655Z,8.43
2022-11-21T17:48:36.691Z,7.43
2022-11-21T17:51:04.544Z,8.27
2022-11-21T17:53:31.803Z,10.05
2022-11-21T17:55:59.804Z,7.75
2022-11-21T17:58:27.440Z,11.07
2022-11-21T18:00:55.278Z,12.90
2022-11-21T18:03:21.945Z,7.32
2022-11-21T18:05:51.661Z,8.18
2022-11-21T18:08:18.310Z,9.50
2022-11-21T18:10:51.537Z,6.97
2022-11-21T18:13:17.873Z,7.28
2022-11-21T18:15:44.239Z,8.15
2022-11-21T18:18:10.636Z,7.50
2022-11-21T18:20:37.024Z,6.30
2022-11-21T18:23:03.344Z,9.10
2022-11-21T18:25:29.750Z,6.13
2022-11-21T18:27:56.203Z,11.57
2022-11-21T18:30:22.638Z,9.48
2022-11-21T18:32:49.308Z,12.57
2022-11-21T18:35:15.786Z,5.95
2022-11-21T18:37:42.356Z,11.27
2022-11-21T18:40:09.264Z,14.15
2022-11-21T18:42:35.806Z,8.70
2022-11-21T18:45:02.207Z,13.93
2022-11-21T18:47:28.524Z,10.13
2022-11-21T18:49:54.973Z,6.93
2022-11-21T18:52:21.387Z,6.00
2022-11-21T18:54:47.794Z,7.75
2022-11-21T18:57:14.206Z,14.60
2022-11-21T18:59:40.604Z,8.77
2022-11-21T19:02:06.953Z,6.80
2022-11-21T19:04:33.354Z,8.48
2022-11-21T19:06:59.812Z,8.82
2022-11-21T19:09:32.535Z,7.15
2022-11-21T19:11:59.325Z,5.93
2022-11-21T19:14:25.908Z,6.32
2022-11-21T19:16:54.067Z,9.40
2022-11-21T19:19:36.175Z,6.28
2022-11-21T19:22:04.598Z,9.70
2022-11-21T19:24:30.958Z,12.85
2022-11-21T19:26:57.378Z,7.40
2022-11-21T19:29:23.784Z,8.82
2022-11-21T19:31:50.128Z,6.78
2022-11-21T19:34:17.029Z,8.52
2022-11-21T19:36:43.941Z,10.38
2022-11-21T19:39:10.566Z,11.80
2022-11-21T19:41:37.129Z,11.35
2022-11-21T19:44:03.897Z,8.95
2022-11-21T19:46:32.412Z,9.40
2022-11-21T19:48:59.435Z,6.28
2022-11-21T19:51:37.080Z,6.70
2022-11-21T19:54:04.343Z,5.72
2022-11-21T19:56:30.776Z,6.38
2022-11-21T19:58:57.715Z,6.45
2022-11-21T20:01:25.587Z,5.15
2022-11-21T20:03:54.080Z,8.23
2022-11-21T20:06:24.852Z,6.78
2022-11-21T20:08:54.007Z,7.65
2022-11-21T20:11:21.448Z,8.13
2022-11-21T20:13:48.379Z,4.50
2022-11-21T20:16:22.784Z,8.70
2022-11-21T20:18:49.948Z,8.15
2022-11-21T20:21:17.017Z,5.95
2022-11-21T20:23:43.513Z,9.52
2022-11-21T20:26:10.231Z,6.78
2022-11-21T20:28:37.239Z,10.10
2022-11-21T20:31:10.903Z,8.02
2022-11-21T20:33:38.318Z,8.15
2022-11-21T20:36:08.989Z,5.95
2022-11-21T20:38:36.068Z,6.78
2022-11-21T20:41:02.717Z,6.05
2022-11-21T20:43:52.642Z,6.22
2022-11-21T20:46:20.499Z,8.35
2022-11-21T20:48:47.772Z,10.27
2022-11-21T20:54:03.676Z,6.18
2022-11-21T20:56:34.723Z,9.30
2022-11-21T20:59:01.433Z,6.82
2022-11-21T21:01:28.647Z,5.85
2022-11-21T21:03:55.092Z,6.20
2022-11-21T21:06:23.978Z,8.38
2022-11-21T21:08:51.261Z,9.05
2022-11-21T21:11:44.794Z,7.45
2022-11-21T21:14:05.030Z,6.40
2022-11-21T21:16:34.357Z,7.15
2022-11-21T21:19:00.801Z,8.50
2022-11-21T21:21:27.967Z,5.65
2022-11-21T21:23:58.622Z,7.00
2022-11-21T21:26:26.432Z,8.82
2022-11-21T21:28:53.692Z,9.40
2022-11-21T21:31:20.835Z,6.45
2022-11-21T21:33:47.355Z,8.32
2022-11-21T21:36:14.777Z,5.25
2022-11-21T21:38:41.451Z,5.28
2022-11-21T21:41:11.653Z,6.97
2022-11-21T21:43:38.347Z,5.68
2022-11-21T21:46:05.570Z,6.93
2022-11-21T21:48:32.178Z,5.78
2022-11-21T21:51:19.167Z,4.22
2022-11-21T21:53:46.442Z,6.43
2022-11-21T21:56:14.333Z,6.00
2022-11-21T21:58:41.883Z,5.95
2022-11-21T22:01:11.199Z,4.90
2022-11-21T22:03:39.067Z,6.63
2022-11-21T22:06:06.741Z,6.00
2022-11-21T22:08:34.120Z,4.97
2022-11-21T22:11:04.758Z,10.25
2022-11-21T22:13:31.259Z,4.20
2022-11-21T22:15:58.533Z,3.40
2022-11-21T22:18:25.135Z,5.45
2022-11-21T22:20:51.508Z,5.32
2022-11-21T22:23:17.885Z,7.68
2022-11-21T22:25:44.473Z,7.38
2022-11-21T22:28:10.886Z,6.03
2022-11-21T22:30:37.303Z,5.80
2022-11-21T22:33:03.967Z,6.15
2022-11-21T22:35:33.601Z,5.28
2022-11-21T22:38:00.107Z,6.25
2022-11-21T22:40:26.697Z,5.20
2022-11-21T22:42:53.058Z,5.43
2022-11-21T22:45:19.551Z,9.93
2022-11-21T22:47:48.058Z,7.18
2022-11-21T22:50:15.481Z,5.03
2022-11-21T22:52:41.975Z,5.07
2022-11-21T22:55:08.666Z,4.68
2022-11-21T22:57:35.160Z,4.78
2022-11-21T23:00:02.230Z,7.88
2022-11-21T23:02:28.572Z,8.23
2022-11-21T23:04:54.960Z,6.93
2022-11-21T23:07:21.428Z,4.45
2022-11-21T23:09:47.810Z,7.45
2022-11-21T23:12:14.122Z,7.57
2022-11-21T23:14:40.484Z,4.88
2022-11-21T23:17:06.819Z,7.60
2022-11-21T23:19:33.132Z,5.78
2022-11-21T23:21:59.451Z,5.68
2022-11-21T23:24:25.841Z,5.38
2022-11-21T23:26:52.257Z,7.63
2022-11-21T23:29:18.586Z,8.30
2022-11-21T23:31:44.905Z,9.48
2022-11-21T23:34:11.357Z,9.70
2022-11-21T23:36:37.731Z,6.30
2022-11-21T23:39:04.729Z,6.40
2022-11-21T23:41:31.101Z,10.23
2022-11-21T23:43:59.732Z,6.30
2022-11-21T23:46:26.736Z,5.82
2022-11-21T23:48:53.168Z,8.10
2022-11-21T23:51:19.526Z,8.20
2022-11-21T23:53:45.875Z,5.63
2022-11-21T23:56:12.324Z,4.85
2022-11-21T23:58:39.625Z,4.43
